Time;durP1;ratioP1;P1;durP2;ratioP2;P2;SDS_P1;SDS_P2;PMS_P1;PMS_P2;Temp;Humidity;BMP_temperature;BMP_pressure;BME280_temperature;BME280_humidity;BME280_pressure;Samples;Min_cycle;Max_cycle;Signal;HPM_P1;HPM_P2
2022/02/12 00:00:15;;;;;;;;;;;;;;;-144.99;100.00;52709.00;5088119;28;19973;-63
2022/02/12 00:02:42;;;;;;;;;;;;;;;-144.99;100.00;52704.94;5087679;28;19997;-63
2022/02/12 00:05:09;;;;;;;;;;;;;;;-144.99;100.00;52700.84;5084149;28;19972;-63
2022/02/12 00:07:36;;;;;;;;;;;;;;;-144.99;100.00;52729.38;5086245;28;19973;-63
2022/02/12 00:10:03;;;;;;;;;;;;;;;-144.99;100.00;52696.78;5090778;28;20463;-63
2022/02/12 00:12:29;;;;;;;;;;;;;;;-144.99;100.00;52745.69;5092600;28;19992;-65
2022/02/12 00:14:57;;;;;;;;;;;;;;;-144.99;100.00;52725.31;5089121;28;19977;-63
2022/02/12 00:17:23;;;;;;;;;;;;;;;-144.99;100.00;52700.84;5088529;28;19987;-63
2022/02/12 00:19:51;;;;;;;;;;;;;;;-144.99;100.00;52741.63;5090217;28;19972;-63
2022/02/12 00:22:18;;;;;;;;;;;;;;;-144.99;100.00;52751.81;5090947;28;20054;-62
2022/02/12 00:24:45;;;;;;;;;;;;;;;-144.99;100.00;52747.72;5085118;28;20000;-62
2022/02/12 00:27:11;;;;;;;;;;;;;;;-144.99;100.00;52719.19;5084945;28;19973;-62
2022/02/12 00:29:37;;;;;;;;;;;;;;;-144.99;100.00;52684.53;5086556;28;20186;-62
2022/02/12 00:32:04;;;;;;;;;;;;;;;-144.99;100.00;52684.53;5088899;28;20019;-62
2022/02/12 00:34:31;;;;;;;;;;;;;;;-144.99;100.00;52721.22;5088803;28;19999;-62
2022/02/12 00:36:59;;;;;;;;;;;;;;;-144.99;100.00;52733.47;5082223;28;19976;-62
2022/02/12 00:39:26;;;;;;;;;;;;;;;-144.99;100.00;52713.09;5084492;28;20068;-63
2022/02/12 00:41:52;;;;;;;;;;;;;;;-144.99;100.00;52737.53;5085271;28;19976;-63
2022/02/12 00:44:19;;;;;;;;;;;;;;;-144.99;100.00;52733.47;5086588;28;19993;-63
2022/02/12 00:46:45;;;;;;;;;;;;;;;-144.99;100.00;52717.16;5086636;28;19980;-63
2022/02/12 00:49:12;;;;;;;;;;;;;;;-144.99;100.00;52729.38;5089718;28;19961;-63
2022/02/12 00:51:40;;;;;;;;;;;;;;;-144.99;100.00;52717.16;5089954;28;19976;-64
2022/02/12 00:54:08;;;;;;;;;;;;;;;-144.99;100.00;52749.78;5087894;28;19994;-63
2022/02/12 00:56:35;;;;;;;;;;;;;;;-144.99;100.00;52721.22;5083530;28;19995;-65
2022/02/12 00:59:01;;;;;;;;;;;;;;;-144.99;100.00;52737.53;5082873;28;19998;-63
2022/02/12 01:01:27;;;;;;;;;;;;;;;-144.99;100.00;52741.63;5086894;28;19982;-63
2022/02/12 01:03:54;;;;;;;;;;;;;;;-144.99;100.00;52713.09;5087860;28;19988;-64
2022/02/12 01:06:21;;;;;;;;;;;;;;;-144.99;100.00;52692.69;5084978;28;20030;-63
2022/02/12 01:08:47;;;;;;;;;;;;;;;-144.99;100.00;52741.63;5085937;28;19980;-63
2022/02/12 01:11:15;;;;;;;;;;;;;;;-144.99;100.00;52725.31;5089174;28;19983;-63
2022/02/12 01:13:42;;;;;;;;;;;;;;;-144.99;100.00;52721.22;5088325;28;20028;-64
2022/02/12 01:16:08;;;;;;;;;;;;;;;-144.99;100.00;52753.84;5091156;28;20046;-64
2022/02/12 01:18:35;;;;;;;;;;;;;;;-144.99;100.00;52702.88;5093119;28;19955;-63
2022/02/12 01:21:01;;;;;;;;;;;;;;;-144.99;100.00;52696.78;5097137;28;19981;-63
2022/02/12 01:23:27;;;;;;;;;;;;;;;-144.99;100.00;52704.94;5097554;28;19997;-63
2022/02/12 01:25:54;;;;;;;;;;;;;;;-144.99;100.00;52709.00;5097550;28;19983;-63
2022/02/12 01:28:22;;;;;;;;;;;;;;;-144.99;100.00;52713.09;5098373;28;19976;-63
2022/02/12 01:30:48;;;;;;;;;;;;;;;-144.99;100.00;52729.38;5098858;28;19976;-63
2022/02/12 01:33:15;;;;;;;;;;;;;;;-144.99;100.00;52717.16;5098019;28;19993;-62
2022/02/12 01:35:42;;;;;;;;;;;;;;;-144.99;100.00;52713.09;5099129;28;20007;-63
2022/02/12 01:38:08;;;;;;;;;;;;;;;-144.99;100.00;52774.22;5087551;28;20332;-63
2022/02/12 01:40:35;;;;;;;;;;;;;;;-144.99;100.00;52713.09;5087304;28;20515;-62
2022/02/12 01:43:02;;;;;;;;;;;;;;;-144.99;100.00;52762.00;5084119;28;19992;-63
2022/02/12 01:45:30;;;;;;;;;;;;;;;-144.99;100.00;52729.38;5083577;28;19983;-63
2022/02/12 01:47:57;;;;;;;;;;;;;;;-144.99;100.00;52733.47;5083172;28;19973;-62
2022/02/12 01:50:23;;;;;;;;;;;;;;;-144.99;100.00;52745.69;5089304;28;19984;-62
2022/02/12 01:52:50;;;;;;;;;;;;;;;-144.99;100.00;52709.00;5089779;28;19996;-62
2022/02/12 01:55:17;;;;;;;;;;;;;;;-144.99;100.00;52704.94;5084393;28;19972;-63
2022/02/12 01:57:43;;;;;;;;;;;;;;;-144.99;100.00;52692.69;5082535;28;19953;-63
2022/02/12 02:00:11;;;;;;;;;;;;;;;-144.99;100.00;52721.22;5094479;28;19973;-62
2022/02/12 02:02:39;;;;;;;;;;;;;;;-144.99;100.00;52700.84;5089486;28;20438;-63
2022/02/12 02:05:06;;;;;;;;;;;;;;;-144.99;100.00;52719.19;5094354;28;20059;-62
2022/02/12 02:07:32;;;;;;;;;;;;;;;-144.99;100.00;52757.94;5091888;28;20184;-62
2022/02/12 02:09:58;;;;;;;;;;;;;;;-144.99;100.00;52694.72;5084347;28;19977;-62
2022/02/12 02:12:25;;;;;;;;;;;;;;;-144.99;100.00;52729.38;5087539;28;20343;-61
2022/02/12 02:14:51;;;;;;;;;;;;;;;-144.99;100.00;52753.84;5090598;28;20361;-61
2022/02/12 02:17:18;;;;;;;;;;;;;;;-144.99;100.00;52702.88;5091715;28;19980;-61
2022/02/12 02:19:46;;;;;;;;;;;;;;;-144.99;100.00;52696.78;5086995;28;19973;-62
2022/02/12 02:22:15;;;;;;;;;;;;;;;-144.99;100.00;52725.31;5082445;28;20220;-62
2022/02/12 02:24:43;;;;;;;;;;;;;;;-144.99;100.00;52696.78;5085533;28;19996;-62
2022/02/12 02:27:10;;;;;;;;;;;;;;;-144.99;100.00;52713.09;5085938;28;19983;-62
2022/02/12 02:29:38;;;;;;;;;;;;;;;-144.99;100.00;52706.97;5085089;28;19973;-62
2022/02/12 02:32:04;;;;;;;;;;;;;;;-144.99;100.00;52723.28;5087230;28;20014;-62
2022/02/12 02:34:31;;;;;;;;;;;;;;;-144.99;100.00;52729.38;5087670;28;20487;-62
2022/02/12 02:36:57;;;;;;;;;;;;;;;-144.99;100.00;52692.69;5084161;28;19957;-64
2022/02/12 02:39:23;;;;;;;;;;;;;;;-144.99;100.00;52696.78;5083902;28;19982;-64
2022/02/12 02:41:51;;;;;;;;;;;;;;;-144.99;100.00;52692.69;5082053;28;19972;-65
2022/02/12 02:44:19;;;;;;;;;;;;;;;-144.99;100.00;52696.78;5083720;28;20003;-67
2022/02/12 02:46:46;;;;;;;;;;;;;;;-144.99;100.00;52731.44;5086446;28;20352;-64
2022/02/12 02:49:12;;;;;;;;;;;;;;;-144.99;100.00;52733.47;5083543;28;19976;-65
2022/02/12 02:57:08;;;;;;;;;;;;;;;-144.99;100.00;52688.63;5085162;28;19980;-65
2022/02/12 02:59:34;;;;;;;;;;;;;;;-144.99;100.00;52709.00;5086273;28;19983;-65
2022/02/12 03:02:01;;;;;;;;;;;;;;;-144.99;100.00;52733.47;5083523;28;19973;-65
2022/02/12 03:04:27;;;;;;;;;;;;;;;-144.99;100.00;52704.94;5084089;28;20024;-64
2022/02/12 03:06:53;;;;;;;;;;;;;;;-144.99;100.00;52753.84;5086518;28;19972;-65
2022/02/12 03:09:20;;;;;;;;;;;;;;;-144.99;100.00;52700.84;5080466;28;20020;-63
2022/02/12 03:11:46;;;;;;;;;;;;;;;-144.99;100.00;52717.16;5086090;28;19973;-63
2022/02/12 03:14:14;;;;;;;;;;;;;;;-144.99;100.00;52723.28;5085839;28;20000;-63
2022/02/12 03:16:40;;;;;;;;;;;;;;;-144.99;100.00;52737.53;5093365;28;19977;-63
2022/02/12 03:19:07;;;;;;;;;;;;;;;-144.99;100.00;52762.00;5092371;28;19973;-63
2022/02/12 03:21:33;;;;;;;;;;;;;;;-144.99;100.00;52719.19;5092061;28;20086;-63
2022/02/12 03:24:00;;;;;;;;;;;;;;;-144.99;100.00;52709.00;5088720;28;19995;-64
2022/02/12 03:26:26;;;;;;;;;;;;;;;-144.99;100.00;52713.09;5095181;28;20111;-64
2022/02/12 03:28:52;;;;;;;;;;;;;;;-144.99;100.00;52717.16;5092053;28;20433;-64
2022/02/12 03:31:20;;;;;;;;;;;;;;;-144.99;100.00;52711.03;5089161;28;20334;-63
2022/02/12 03:33:46;;;;;;;;;;;;;;;-144.99;100.00;52774.22;5091062;28;19992;-63
2022/02/12 03:36:13;;;;;;;;;;;;;;;-144.99;100.00;52704.94;5090293;28;19979;-63
2022/02/12 03:38:43;;;;;;;;;;;;;;;-144.99;100.00;52700.84;5088574;28;19972;-63
2022/02/12 03:41:09;;;;;;;;;;;;;;;-144.99;100.00;52729.38;5087604;28;19976;-62
2022/02/12 03:43:36;;;;;;;;;;;;;;;-144.99;100.00;52692.69;5086212;28;19999;-62
2022/02/12 03:46:03;;;;;;;;;;;;;;;-144.99;100.00;52700.84;5088049;28;19983;-63
2022/02/12 03:48:31;;;;;;;;;;;;;;;-144.99;100.00;52717.16;5089072;28;20000;-62
2022/02/12 03:50:57;;;;;;;;;;;;;;;-144.99;100.00;52700.84;5083156;28;19981;-63
2022/02/12 03:53:24;;;;;;;;;;;;;;;-144.99;100.00;52717.16;5090708;28;19975;-63
2022/02/12 03:55:50;;;;;;;;;;;;;;;-144.99;100.00;52698.81;5087043;28;19980;-63
2022/02/12 03:58:18;;;;;;;;;;;;;;;-144.99;100.00;52676.38;5086099;28;19977;-61
2022/02/12 04:00:45;;;;;;;;;;;;;;;-144.99;100.00;52666.19;5086180;28;21186;-61
2022/02/12 04:03:12;;;;;;;;;;;;;;;-144.99;100.00;52684.53;5091979;28;20551;-61
2022/02/12 04:05:41;;;;;;;;;;;;;;;-144.99;100.00;52688.63;5088137;28;19984;-61
2022/02/12 04:08:07;;;;;;;;;;;;;;;-144.99;100.00;52721.22;5093234;28;19979;-61
2022/02/12 04:10:35;;;;;;;;;;;;;;;-144.99;100.00;52704.94;5101321;28;19977;-61
2022/02/12 04:13:02;;;;;;;;;;;;;;;-144.99;100.00;52684.53;5099684;28;20552;-61
2022/02/12 04:15:28;;;;;;;;;;;;;;;-144.99;100.00;52696.78;5092652;28;19977;-62
2022/02/12 04:17:55;;;;;;;;;;;;;;;-144.99;100.00;52692.69;5085617;28;20929;-61
2022/02/12 04:20:23;;;;;;;;;;;;;;;-144.99;100.00;52690.66;5086586;28;20068;-61
2022/02/12 04:22:51;;;;;;;;;;;;;;;-144.99;100.00;52739.56;5080404;28;20001;-61
2022/02/12 04:25:19;;;;;;;;;;;;;;;-144.99;100.00;52680.47;5088701;28;19985;-61
2022/02/12 04:27:45;;;;;;;;;;;;;;;-144.99;100.00;52688.63;5092075;28;19988;-61
2022/02/12 04:30:13;;;;;;;;;;;;;;;-144.99;100.00;52704.94;5086425;28;19984;-61
2022/02/12 04:32:40;;;;;;;;;;;;;;;-144.99;100.00;52684.53;5088748;28;19975;-62
2022/02/12 04:35:07;;;;;;;;;;;;;;;-144.99;100.00;52713.09;5084791;28;19992;-63
2022/02/12 04:37:34;;;;;;;;;;;;;;;-144.99;100.00;52733.47;5086464;28;19973;-63
2022/02/12 04:40:02;;;;;;;;;;;;;;;-144.99;100.00;52749.78;5086417;28;20481;-63
2022/02/12 04:42:28;;;;;;;;;;;;;;;-144.99;100.00;52717.16;5086534;28;19999;-63
2022/02/12 04:44:54;;;;;;;;;;;;;;;-144.99;100.00;52721.22;5084532;28;19980;-63
2022/02/12 04:47:21;;;;;;;;;;;;;;;-144.99;100.00;52696.78;5083211;28;19976;-63
2022/02/12 04:49:49;;;;;;;;;;;;;;;-144.99;100.00;52717.16;5083198;28;19956;-62
2022/02/12 04:52:16;;;;;;;;;;;;;;;-144.99;100.00;52704.94;5089323;28;20372;-63
2022/02/12 04:54:43;;;;;;;;;;;;;;;-144.99;100.00;52686.59;5087500;28;20004;-63
2022/02/12 04:57:11;;;;;;;;;;;;;;;-144.99;100.00;52747.72;5083219;28;20360;-63
2022/02/12 04:59:37;;;;;;;;;;;;;;;-144.99;100.00;52698.81;5087007;28;19972;-63
2022/02/12 05:02:04;;;;;;;;;;;;;;;-144.99;100.00;52721.22;5086772;28;19984;-63
2022/02/12 05:04:31;;;;;;;;;;;;;;;-144.99;100.00;52700.84;5086839;28;19989;-63
2022/02/12 05:06:57;;;;;;;;;;;;;;;-144.99;100.00;52696.78;5086308;28;19979;-63
2022/02/12 05:09:23;;;;;;;;;;;;;;;-144.99;100.00;52704.94;5087620;28;20000;-63
2022/02/12 05:11:51;;;;;;;;;;;;;;;-144.99;100.00;52688.63;5083432;28;19973;-63
2022/02/12 05:14:20;;;;;;;;;;;;;;;-144.99;100.00;52684.53;5085549;28;20001;-63
2022/02/12 05:16:47;;;;;;;;;;;;;;;-144.99;100.00;52700.84;5085028;28;19980;-63
2022/02/12 05:19:13;;;;;;;;;;;;;;;-144.99;100.00;52700.84;5086127;28;19977;-64
2022/02/12 05:21:40;;;;;;;;;;;;;;;-144.99;100.00;52696.78;5084957;28;19971;-64
2022/02/12 05:24:07;;;;;;;;;;;;;;;-144.99;100.00;52692.69;5081761;28;20000;-64
2022/02/12 05:26:33;;;;;;;;;;;;;;;-144.99;100.00;52715.13;5089069;28;19973;-64
2022/02/12 05:29:00;;;;;;;;;;;;;;;-144.99;100.00;52688.63;5087686;28;19972;-64
2022/02/12 05:31:27;;;;;;;;;;;;;;;-144.99;100.00;52717.16;5083992;28;20026;-64
2022/02/12 05:33:54;;;;;;;;;;;;;;;-144.99;100.00;52737.53;5087131;28;20361;-63
2022/02/12 05:36:20;;;;;;;;;;;;;;;-144.99;100.00;52668.22;5082402;28;20006;-62
2022/02/12 05:38:46;;;;;;;;;;;;;;;-144.99;100.00;52668.22;5085859;28;19942;-62
2022/02/12 05:41:14;;;;;;;;;;;;;;;-144.99;100.00;52688.63;5087311;28;19981;-62
2022/02/12 05:43:41;;;;;;;;;;;;;;;-144.99;100.00;52688.63;5083861;28;19982;-62
2022/02/12 05:46:11;;;;;;;;;;;;;;;-144.99;100.00;52680.47;5085282;28;19977;-62
2022/02/12 05:48:38;;;;;;;;;;;;;;;-144.99;100.00;52719.19;5085772;28;19964;-63
2022/02/12 05:51:05;;;;;;;;;;;;;;;-144.99;100.00;52684.53;5084642;28;19973;-61
2022/02/12 05:53:31;;;;;;;;;;;;;;;-144.99;100.00;52721.22;5083669;28;20020;-62
2022/02/12 05:55:59;;;;;;;;;;;;;;;-144.99;100.00;52688.63;5085611;28;21500;-63
2022/02/12 05:58:26;;;;;;;;;;;;;;;-144.99;100.00;52717.16;5081296;28;20441;-63
2022/02/12 06:00:53;;;;;;;;;;;;;;;-144.99;100.00;52682.50;5086729;28;19972;-63
2022/02/12 06:03:19;;;;;;;;;;;;;;;-144.99;100.00;52713.09;5087253;28;19992;-61
2022/02/12 06:05:47;;;;;;;;;;;;;;;-144.99;100.00;52719.19;5085628;28;19973;-61
2022/02/12 06:08:13;;;;;;;;;;;;;;;-144.99;100.00;52674.34;5078820;28;20351;-63
2022/02/12 06:10:39;;;;;;;;;;;;;;;-144.99;100.00;52692.69;5083572;28;19972;-62
2022/02/12 06:13:06;;;;;;;;;;;;;;;-144.99;100.00;52715.13;5079546;28;20003;-63
2022/02/12 06:15:35;;;;;;;;;;;;;;;-144.99;100.00;52709.00;5090252;28;20082;-64
2022/02/12 06:18:02;;;;;;;;;;;;;;;-144.99;100.00;52696.78;5105737;28;20401;-62
2022/02/12 06:20:28;;;;;;;;;;;;;;;-144.99;100.00;52721.22;5101835;28;19977;-62
2022/02/12 06:22:56;;;;;;;;;;;;;;;-144.99;100.00;52709.00;5098986;28;19988;-62
2022/02/12 06:25:22;;;;;;;;;;;;;;;-144.99;100.00;52731.44;5105581;28;19984;-62
2022/02/12 06:27:49;;;;;;;;;;;;;;;-144.99;100.00;52729.38;5097194;28;20403;-62
2022/02/12 06:30:15;;;;;;;;;;;;;;;-144.99;100.00;52725.31;5088173;28;19972;-62
2022/02/12 06:32:42;;;;;;;;;;;;;;;-144.99;100.00;52694.72;5089977;28;20003;-61
2022/02/12 06:35:09;;;;;;;;;;;;;;;-144.99;100.00;52733.47;5075083;28;20443;-61
2022/02/12 06:37:35;;;;;;;;;;;;;;;-144.99;100.00;52680.47;5086307;28;19977;-60
2022/02/12 06:40:04;;;;;;;;;;;;;;;-144.99;100.00;52729.38;5084777;28;19973;-60
2022/02/12 06:42:31;;;;;;;;;;;;;;;-144.99;100.00;52668.22;5086865;28;19975;-60
2022/02/12 06:45:00;;;;;;;;;;;;;;;-144.99;100.00;52715.13;5084736;28;19989;-60
2022/02/12 06:47:26;;;;;;;;;;;;;;;-144.99;100.00;52674.34;5084742;28;20042;-65
2022/02/12 06:49:53;;;;;;;;;;;;;;;-144.99;100.00;52717.16;5090896;28;19984;-65
2022/02/12 06:52:19;;;;;;;;;;;;;;;-144.99;100.00;52709.00;5088013;28;20452;-64
2022/02/12 06:54:45;;;;;;;;;;;;;;;-144.99;100.00;52717.16;5084271;28;19993;-64
2022/02/12 06:57:13;;;;;;;;;;;;;;;-144.99;100.00;52658.03;5087500;28;20352;-64
2022/02/12 06:59:39;;;;;;;;;;;;;;;-144.99;100.00;52676.38;5087933;28;19974;-64
2022/02/12 07:02:08;;;;;;;;;;;;;;;-144.99;100.00;52700.84;5091067;28;19976;-65
2022/02/12 07:04:34;;;;;;;;;;;;;;;-144.99;100.00;52721.22;5089736;28;20433;-62
2022/02/12 07:07:00;;;;;;;;;;;;;;;-144.99;100.00;52668.22;5087300;28;20363;-63
2022/02/12 07:09:27;;;;;;;;;;;;;;;-144.99;100.00;52676.38;5087126;28;19981;-63
2022/02/12 07:11:53;;;;;;;;;;;;;;;-144.99;100.00;52709.00;5084540;28;20371;-63
2022/02/12 07:14:21;;;;;;;;;;;;;;;-144.99;100.00;52745.69;5087006;28;19996;-64
2022/02/12 07:16:47;;;;;;;;;;;;;;;-144.99;100.00;52676.38;5088744;28;19977;-66
2022/02/12 07:19:14;;;;;;;;;;;;;;;-144.99;100.00;52688.63;5085867;28;19971;-63
2022/02/12 07:21:40;;;;;;;;;;;;;;;-144.99;100.00;52688.63;5089474;28;19977;-64
2022/02/12 07:24:06;;;;;;;;;;;;;;;-144.99;100.00;52651.94;5084050;28;19988;-65
2022/02/12 07:26:35;;;;;;;;;;;;;;;-144.99;100.00;52709.00;5088692;28;20079;-65
2022/02/12 07:29:02;;;;;;;;;;;;;;;-144.99;100.00;52668.22;5086867;28;19972;-64
2022/02/12 07:31:32;;;;;;;;;;;;;;;-144.99;100.00;52704.94;5082817;28;19980;-64
2022/02/12 07:33:58;;;;;;;;;;;;;;;-144.99;100.00;52684.53;5090901;28;20388;-64
2022/02/12 07:36:26;;;;;;;;;;;;;;;-144.99;100.00;52729.38;5091943;28;20356;-64
2022/02/12 07:38:52;;;;;;;;;;;;;;;-144.99;99.66;52721.22;5089667;28;19980;-64
2022/02/12 07:41:18;;;;;;;;;;;;;;;-144.99;99.37;52656.00;5084562;28;19984;-64
2022/02/12 07:43:45;;;;;;;;;;;;;;;-144.99;98.89;52676.38;5086739;28;20361;-63
2022/02/12 07:46:12;;;;;;;;;;;;;;;-144.99;97.81;52704.94;5088587;28;19991;-63
2022/02/12 07:48:39;;;;;;;;;;;;;;;-144.99;98.02;52688.63;5088738;28;20078;-63
2022/02/12 07:51:07;;;;;;;;;;;;;;;-144.99;97.19;52688.63;5090084;28;20245;-67
2022/02/12 07:53:34;;;;;;;;;;;;;;;-144.99;96.39;52688.63;5091018;28;20547;-65
2022/02/12 07:56:00;;;;;;;;;;;;;;;-144.99;95.36;52664.16;5088971;28;19987;-65
2022/02/12 07:58:28;;;;;;;;;;;;;;;-144.99;93.85;52672.31;5081402;28;19984;-61
2022/02/12 08:00:54;;;;;;;;;;;;;;;-144.99;94.17;52672.31;5084537;28;19983;-61
2022/02/12 08:03:21;;;;;;;;;;;;;;;-144.99;92.92;52647.84;5081747;28;19993;-62
2022/02/12 08:05:49;;;;;;;;;;;;;;;-144.99;91.62;52684.53;5084883;28;20007;-62
2022/02/12 08:08:15;;;;;;;;;;;;;;;-144.99;90.67;52656.00;5089388;28;19991;-62
2022/02/12 08:13:25;;;;;;;;;;;;;;;-144.99;90.25;52668.22;5088434;28;20119;-62
2022/02/12 08:15:51;;;;;;;;;;;;;;;-144.99;89.67;52698.81;5084417;28;19989;-62
2022/02/12 08:18:18;;;;;;;;;;;;;;;-144.99;88.60;52651.94;5086722;28;20016;-62
2022/02/12 08:20:45;;;;;;;;;;;;;;;-144.99;87.86;52660.09;5085392;28;19976;-62
2022/02/12 08:23:14;;;;;;;;;;;;;;;-144.99;86.67;52656.00;5087640;28;19988;-62
2022/02/12 08:25:40;;;;;;;;;;;;;;;-144.99;86.86;52680.47;5083985;28;19995;-62
2022/02/12 08:28:06;;;;;;;;;;;;;;;-144.99;87.53;52643.78;5085725;28;20404;-62
2022/02/12 08:30:33;;;;;;;;;;;;;;;-144.99;84.38;52635.63;5084996;28;19972;-62
2022/02/12 08:32:59;;;;;;;;;;;;;;;-144.99;83.91;52635.63;5086518;28;19996;-62
2022/02/12 08:35:26;;;;;;;;;;;;;;;-144.99;84.14;52651.94;5088596;28;20001;-66
2022/02/12 08:37:52;;;;;;;;;;;;;;;-144.99;84.33;52643.78;5087065;28;19978;-68
2022/02/12 08:40:20;;;;;;;;;;;;;;;-144.99;79.87;52662.13;5086978;28;19985;-67
2022/02/12 08:42:48;;;;;;;;;;;;;;;-144.99;80.46;52674.34;5088375;28;20082;-67
2022/02/12 08:45:15;;;;;;;;;;;;;;;-144.99;78.88;52623.38;5087168;28;20051;-67
2022/02/12 08:47:41;;;;;;;;;;;;;;;-144.99;76.92;52656.00;5085032;28;19971;-67
2022/02/12 08:50:08;;;;;;;;;;;;;;;-144.99;76.18;52625.44;5084343;28;20072;-69
2022/02/12 08:52:35;;;;;;;;;;;;;;;-144.99;76.86;52694.72;5086746;28;20345;-65
2022/02/12 08:55:01;;;;;;;;;;;;;;;-144.99;76.64;52631.53;5086984;28;19990;-67
2022/02/12 08:57:29;;;;;;;;;;;;;;;-144.99;75.78;52653.97;5086582;28;20164;-64
2022/02/12 08:59:55;;;;;;;;;;;;;;;-144.99;76.27;52660.09;5082750;28;19974;-67
2022/02/12 09:02:21;;;;;;;;;;;;;;;-144.99;77.74;52674.34;5090748;28;20448;-64
2022/02/12 09:04:48;;;;;;;;;;;;;;;-144.99;76.43;52700.84;5088926;28;19976;-65
2022/02/12 09:07:14;;;;;;;;;;;;;;;-144.99;76.50;52680.47;5092272;28;19978;-65
2022/02/12 09:09:42;;;;;;;;;;;;;;;-144.99;75.79;52684.53;5091748;28;20028;-65
2022/02/12 09:12:09;;;;;;;;;;;;;;;-144.99;73.80;52651.94;5092001;28;20425;-66
2022/02/12 09:14:36;;;;;;;;;;;;;;;-144.99;72.06;52656.00;5089918;28;20013;-65
2022/02/12 09:17:03;;;;;;;;;;;;;;;-144.99;71.57;52647.84;5092390;28;19984;-65
2022/02/12 09:19:30;;;;;;;;;;;;;;;-144.99;70.78;52639.69;5091926;28;19989;-67
2022/02/12 09:21:56;;;;;;;;;;;;;;;-144.99;70.19;52668.22;5092229;28;20095;-66
2022/02/12 09:24:22;;;;;;;;;;;;;;;-144.99;69.62;52631.53;5091701;28;19994;-65
2022/02/12 09:26:49;;;;;;;;;;;;;;;-144.99;69.86;52615.25;5092018;28;20227;-65
2022/02/12 09:29:15;;;;;;;;;;;;;;;-144.99;70.57;52656.00;5099193;28;19981;-65
2022/02/12 09:31:43;;;;;;;;;;;;;;;-144.99;69.53;52670.28;5110569;28;19990;-66
2022/02/12 09:34:09;;;;;;;;;;;;;;;-144.99;68.93;52643.78;5104961;28;20016;-66
2022/02/12 09:36:37;;;;;;;;;;;;;;;-144.99;68.92;52631.53;5105437;28;19934;-66
2022/02/12 09:39:04;;;;;;;;;;;;;;;-144.99;68.32;52656.00;5098653;28;19978;-67
2022/02/12 09:41:30;;;;;;;;;;;;;;;-144.99;67.13;52605.03;5092661;28;19989;-66
2022/02/12 09:43:57;;;;;;;;;;;;;;;-144.99;64.51;52647.84;5092136;28;19987;-66
2022/02/12 09:46:36;;;;;;;;;;;;;;;-144.99;63.68;52627.47;5091389;28;19964;-66
2022/02/12 09:49:04;;;;;;;;;;;;;;;-144.99;61.22;52598.94;5088705;28;19968;-66
2022/02/12 09:51:31;;;;;;;;;;;;;;;-144.99;60.80;52613.19;5082979;28;19967;-67
2022/02/12 09:54:00;;;;;;;;;;;;;;;-144.99;58.14;52619.31;5091484;28;20014;-66
2022/02/12 09:56:26;;;;;;;;;;;;;;;-144.99;58.28;52617.28;5091341;28;19974;-66
2022/02/12 09:58:53;;;;;;;;;;;;;;;-144.99;57.90;52615.25;5091253;28;19967;-68
2022/02/12 10:01:19;;;;;;;;;;;;;;;-144.99;56.21;52627.47;5088507;28;19972;-66
2022/02/12 10:03:46;;;;;;;;;;;;;;;-144.99;55.75;52603.00;5091711;28;19970;-66
2022/02/12 10:06:14;;;;;;;;;;;;;;;-144.99;53.91;52607.09;5091212;28;20083;-67
2022/02/12 10:08:41;;;;;;;;;;;;;;;-144.99;53.63;52578.53;5090929;28;19972;-68
2022/02/12 10:11:11;;;;;;;;;;;;;;;-144.99;52.48;52627.47;5090863;28;20033;-66
2022/02/12 10:13:38;;;;;;;;;;;;;;;-144.99;52.06;52580.59;5091239;28;20016;-68
2022/02/12 10:16:04;;;;;;;;;;;;;;;-144.99;51.63;52539.81;5090906;28;19993;-67
2022/02/12 10:18:32;;;;;;;;;;;;;;;-144.99;50.40;52578.53;5091393;28;19967;-67
2022/02/12 10:20:59;;;;;;;;;;;;;;;-144.99;49.70;52562.25;5090423;28;20460;-67
2022/02/12 10:23:29;;;;;;;;;;;;;;;-144.99;48.63;52574.47;5095073;28;20396;-66
2022/02/12 10:26:07;;;;;;;;;;;;;;;-144.99;47.66;52562.25;5095592;28;20034;-66
2022/02/12 10:28:35;;;;;;;;;;;;;;;-144.99;46.05;52545.94;5095333;28;19966;-66
2022/02/12 10:31:01;;;;;;;;;;;;;;;-144.99;45.23;52533.69;5090126;28;19979;-66
2022/02/12 10:33:28;;;;;;;;;;;;;;;-144.99;46.12;52550.00;5102366;28;20003;-66
2022/02/12 10:35:56;;;;;;;;;;;;;;;-144.99;45.88;52494.97;5102359;28;19995;-67
2022/02/12 10:38:24;;;;;;;;;;;;;;;-144.99;44.14;52494.97;5102753;28;19981;-67
2022/02/12 10:41:05;;;;;;;;;;;;;;;-144.99;43.69;52464.41;5093178;28;19988;-67
2022/02/12 10:43:32;;;;;;;;;;;;;;;-144.99;42.92;52439.94;5099702;28;20420;-67
2022/02/12 10:45:59;;;;;;;;;;;;;;;-144.99;42.11;52439.94;5100219;28;19997;-67
2022/02/12 10:48:25;;;;;;;;;;;;;;;-144.99;41.94;52448.09;5099954;28;20352;-68
2022/02/12 10:50:58;;;;;;;;;;;;;;;-144.99;42.79;52439.94;5097557;28;20296;-67
2022/02/12 10:53:25;;;;;;;;;;;;;;;-144.99;42.27;52382.88;5095020;28;20002;-67
2022/02/12 10:55:57;;;;;;;;;;;;;;;-144.99;41.16;52456.25;5096587;28;19995;-68
2022/02/12 10:58:25;;;;;;;;;;;;;;;-144.99;41.86;52452.16;5081641;28;19990;-68
2022/02/12 11:00:52;;;;;;;;;;;;;;;-144.99;41.13;52435.88;5079613;22;20458;-64
2022/02/12 11:03:20;;;;;;;;;;;;;;;-144.99;41.40;52391.03;5060730;28;20021;-65
2022/02/12 11:05:51;;;;;;;;;;;;;;;-144.99;41.18;52415.47;5073101;28;19978;-66
2022/02/12 11:08:20;;;;;;;;;;;;;;;-144.99;41.86;52492.94;5073354;28;19989;-65
2022/02/12 11:10:47;;;;;;;;;;;;;;;-144.99;41.97;52480.72;5073893;28;19983;-66
2022/02/12 11:13:14;;;;;;;;;;;;;;;-144.99;42.04;52448.09;5080995;28;19999;-66
2022/02/12 11:15:42;;;;;;;;;;;;;;;-144.99;40.54;52423.63;5072458;28;19994;-66
2022/02/12 11:18:10;;;;;;;;;;;;;;;-144.99;40.61;52403.25;5072830;28;19986;-66
2022/02/12 11:20:38;;;;;;;;;;;;;;;-144.99;39.02;52429.75;5071807;28;19979;-65
2022/02/12 11:23:24;;;;;;;;;;;;;;;-144.99;39.33;52415.47;5079096;28;19994;-66
2022/02/12 11:25:51;;;;;;;;;;;;;;;-144.99;39.13;52386.94;5073186;28;20021;-66
2022/02/12 11:28:18;;;;;;;;;;;;;;;-144.99;38.57;52411.41;5073624;28;20005;-66
2022/02/12 11:30:46;;;;;;;;;;;;;;;-144.99;38.65;52378.78;5083647;28;19975;-66
2022/02/12 11:33:19;;;;;;;;;;;;;;;-144.99;38.93;52448.09;5071990;28;20002;-67
2022/02/12 11:36:19;;;;;;;;;;;;;;;-144.99;39.17;52423.63;5059816;28;19998;-65
2022/02/12 11:38:48;;;;;;;;;;;;;;;-144.99;39.31;52415.47;5073487;28;20223;-66
2022/02/12 11:41:19;;;;;;;;;;;;;;;-144.99;38.65;52415.47;5072881;28;19990;-67
2022/02/12 11:43:46;;;;;;;;;;;;;;;-144.99;37.64;52391.03;5072579;28;20375;-66
2022/02/12 11:46:13;;;;;;;;;;;;;;;-144.99;37.42;52395.09;5071533;28;19988;-67
2022/02/12 11:48:42;;;;;;;;;;;;;;;-144.99;37.51;52354.34;5068557;28;19982;-66
2022/02/12 11:51:09;;;;;;;;;;;;;;;-144.99;36.50;52435.88;5080074;28;19969;-66
2022/02/12 11:53:40;;;;;;;;;;;;;;;-144.99;37.38;52429.75;5072776;28;19998;-67
2022/02/12 11:56:10;;;;;;;;;;;;;;;-144.99;37.42;52505.16;5071771;28;20041;-66
2022/02/12 11:58:59;;;;;;;;;;;;;;;-144.99;38.41;52541.84;5071854;28;19982;-66
2022/02/12 12:01:46;;;;;;;;;;;;;;;-144.99;39.31;52552.03;5076326;28;19983;-67
2022/02/12 12:04:17;;;;;;;;;;;;;;;-144.99;39.37;52476.63;5072004;28;20066;-66
2022/02/12 12:07:04;;;;;;;;;;;;;;;-144.99;39.66;52513.31;5058590;28;19979;-66
2022/02/12 12:09:31;;;;;;;;;;;;;;;-144.99;39.27;52513.31;5072029;28;19976;-67
2022/02/12 12:12:14;;;;;;;;;;;;;;;-144.99;39.15;52539.81;5072742;28;20011;-65
2022/02/12 12:14:40;;;;;;;;;;;;;;;-144.99;38.66;52537.78;5071866;28;20091;-66
2022/02/12 12:17:08;;;;;;;;;;;;;;;-144.99;38.77;52529.63;5071963;28;19995;-66
2022/02/12 12:19:35;;;;;;;;;;;;;;;-144.99;39.59;52509.25;5071714;28;20344;-66
2022/02/12 12:22:03;;;;;;;;;;;;;;;-144.99;39.08;52444.03;5078761;28;20330;-67
2022/02/12 12:24:30;;;;;;;;;;;;;;;-144.99;38.38;52529.63;5058027;28;20001;-66
2022/02/12 12:26:56;;;;;;;;;;;;;;;-144.99;38.58;52509.25;5071571;28;19988;-65
2022/02/12 12:32:11;;;;;;;;;;;;;;;-144.99;40.10;52578.53;5075154;28;20049;-66